Map

Track Data

SID SEASON NUMBER BASIN SUBBASIN NAME ISO_TIME NATURE LAT LON WMO_WIND WMO_PRES WMO_AGENCY TRACK_TYPE DIST2LAND LANDFALL IFLAG USA_AGENCY USA_ATCF_ID USA_LAT USA_LON USA_RECORD USA_STATUS USA_WIND USA_PRES USA_SSHS USA_R34_NE USA_R34_SE USA_R34_SW USA_R34_NW USA_R50_NE USA_R50_SE USA_R50_SW USA_R50_NW USA_R64_NE USA_R64_SE USA_R64_SW USA_R64_NW USA_POCI USA_ROCI USA_RMW USA_EYE TOKYO_LAT TOKYO_LON TOKYO_GRADE TOKYO_WIND TOKYO_PRES TOKYO_R50_DIR TOKYO_R50_LONG TOKYO_R50_SHORT TOKYO_R30_DIR TOKYO_R30_LONG TOKYO_R30_SHORT TOKYO_LAND CMA_LAT CMA_LON CMA_CAT CMA_WIND CMA_PRES HKO_LAT HKO_LON HKO_CAT HKO_WIND HKO_PRES NEWDELHI_LAT NEWDELHI_LON NEWDELHI_GRADE NEWDELHI_WIND NEWDELHI_PRES NEWDELHI_CI NEWDELHI_DP NEWDELHI_POCI REUNION_LAT REUNION_LON REUNION_TYPE REUNION_WIND REUNION_PRES REUNION_TNUM REUNION_CI REUNION_RMW REUNION_R34_NE REUNION_R34_SE REUNION_R34_SW REUNION_R34_NW REUNION_R50_NE REUNION_R50_SE REUNION_R50_SW REUNION_R50_NW REUNION_R64_NE REUNION_R64_SE REUNION_R64_SW REUNION_R64_NW BOM_LAT BOM_LON BOM_TYPE BOM_WIND BOM_PRES BOM_TNUM BOM_CI BOM_RMW BOM_R34_NE BOM_R34_SE BOM_R34_SW BOM_R34_NW BOM_R50_NE BOM_R50_SE BOM_R50_SW BOM_R50_NW BOM_R64_NE BOM_R64_SE BOM_R64_SW BOM_R64_NW BOM_ROCI BOM_POCI BOM_EYE BOM_POS_METHOD BOM_PRES_METHOD NADI_LAT NADI_LON NADI_CAT NADI_WIND NADI_PRES WELLINGTON_LAT WELLINGTON_LON WELLINGTON_WIND WELLINGTON_PRES DS824_LAT DS824_LON DS824_STAGE DS824_WIND DS824_PRES TD9636_LAT TD9636_LON TD9636_STAGE TD9636_WIND TD9636_PRES TD9635_LAT TD9635_LON TD9635_WIND TD9635_PRES TD9635_ROCI NEUMANN_LAT NEUMANN_LON NEUMANN_CLASS NEUMANN_WIND NEUMANN_PRES MLC_LAT MLC_LON MLC_CLASS MLC_WIND MLC_PRES USA_GUST BOM_GUST BOM_GUST_PER REUNION_GUST REUNION_GUST_PER USA_SEAHGT USA_SEARAD_NE USA_SEARAD_SE USA_SEARAD_SW USA_SEARAD_NW STORM_SPEED STORM_DIR
1970353S08097 1971 157 SI WA JANET 1970-12-19 00:00:00 TS -8.00000 97.0000 1004 bom main 732 727 ______O__O____ -1 -8.00000 97.0000 1004 -8.00000 97.0000 TC 20 1004 4 126
1970353S08097 1971 157 SI WA JANET 1970-12-19 03:00:00 TS -8.13126 97.1812 1002 bom main 727 726 ______O__P____ -1 -8.10000 97.2000 1002 -8.16252 97.1625 TC 25 1002 4 136
1970353S08097 1971 157 SI WA JANET 1970-12-19 06:00:00 TS -8.30000 97.3000 1000 bom main 733 732 ______O__O____ -1 -8.30000 97.3000 1000 -8.30000 97.3000 TC 30 1000 3 141
1970353S08097 1971 157 SI WA JANET 1970-12-19 09:00:00 TS -8.39999 97.4000 999 bom main 732 732 ______O__P____ -1 -8.40000 97.4000 999 -8.39998 97.4000 TC 32 998 3 135
1970353S08097 1971 157 SI WA JANET 1970-12-19 12:00:00 TS -8.50000 97.5000 997 bom main 732 732 ______O__O____ -1 -8.50000 97.5000 997 -8.50000 97.5000 TC 35 997 4 135
1970353S08097 1971 157 SI WA JANET 1970-12-19 15:00:00 TS -8.67500 97.6750 995 bom main 732 732 ______O__P____ -1 -8.70000 97.7000 995 -8.65001 97.6500 TC 37 995 4 136
1970353S08097 1971 157 SI WA JANET 1970-12-19 18:00:00 TS -8.80000 97.8000 994 bom main 732 725 ______O__O____ -1 -8.80000 97.8000 994 -8.80000 97.8000 TC 40 994 3 134
1970353S08097 1971 157 SI WA JANET 1970-12-19 21:00:00 TS -8.88498 97.8926 992 bom main 733 726 ______O__P____ -1 -8.90000 97.9000 992 -8.86996 97.8851 TC 42 992 3 135
1970353S08097 1971 157 SI WA JANET 1970-12-20 00:00:00 TS -9.00000 98.0000 990 bom main 734 734 ______O__O____ -1 -9.00000 98.0000 990 -9.00000 98.0000 TC 45 990 5 143
1970353S08097 1971 157 SI WA JANET 1970-12-20 03:00:00 TS -9.30251 98.2137 990 bom main 746 746 ______O__P____ -1 -9.30000 98.2000 990 -9.30502 98.2275 TC 45 990 9 160
1970353S08097 1971 157 SI WA JANET 1970-12-20 06:00:00 TS -9.83333 98.3000 990 bom main 781 781 O_____O__OO_O_ jtwc_sh SH051971 -10.1000 97.9000 -1 -9.70000 98.5000 990 -9.70000 98.5000 TC 45 990 -10.1000 97.9000 1 -10.1000 97.9000 TC 30 11 160
1970353S08097 1971 157 SI WA JANET 1970-12-20 09:00:00 TS -10.2967 98.5906 990 bom main 804 804 P_____O__PP_P_ SH051971 -10.4827 98.4648 -1 -10.1000 98.7000 990 -10.1000 98.7500 TC 45 990 -10.5258 98.4306 1 -10.4827 98.4648 TC 30 11 143
1970353S08097 1971 157 SI WA JANET 1970-12-20 12:00:00 TS -10.7491 98.9924 990 bom main 809 801 O_____O__OP_O_ jtwc_sh SH051971 -10.9000 99.0000 -1 -10.5000 99.0000 990 -10.5000 99.0000 TC 45 990 -10.9608 98.9495 1 -10.9000 99.0000 TC 30 12 139
1970353S08097 1971 157 SI WA JANET 1970-12-20 15:00:00 TS -11.1996 99.3890 990 bom main 805 801 P_____O__PP_P_ SH051971 -11.3774 99.4801 -1 -10.8000 99.2000 990 -10.8500 99.2501 TC 45 990 -11.4155 99.4436 1 -11.3774 99.4801 TC 30 12 140
1970353S08097 1971 157 SI WA JANET 1970-12-20 18:00:00 TS -11.6667 99.7667 990 bom main 808 807 O_____O__OO_O_ jtwc_sh SH051971 -11.9000 99.9000 -1 -11.2000 99.5000 990 -11.2000 99.5000 TC 45 990 -11.9000 99.9000 1 -11.9000 99.9000 TC 30 12 144
1970353S08097 1971 157 SI WA JANET 1970-12-20 21:00:00 TS -12.1446 100.102 990 bom main 815 815 P_____O__PP_P_ SH051971 -12.4350 100.288 -1 -11.6000 99.7000 990 -11.5400 99.7428 TC 45 990 -12.4226 100.304 1 -12.4350 100.288 TC 30 12 148
1970353S08097 1971 157 SI WA JANET 1970-12-21 00:00:00 TS -12.6637 100.406 990 bom main 844 844 O_____O__OP_O_ jtwc_sh SH051971 -13.0000 100.600 -1 -12.0000 100.000 990 -12.0000 100.000 TC 45 990 -12.9823 100.637 1 -13.0000 100.600 TC 30 13 153
1970353S08097 1971 157 SI WA JANET 1970-12-21 03:00:00 TS -13.2551 100.672 989 bom main 879 879 P_____O__PP_P_ SH051971 -13.5850 100.860 -1 -12.6000 100.300 989 -12.6076 100.285 TC 47 988 -13.5758 100.876 1 -13.5775 100.853 TC 32 14 161
1970353S08097 1971 157 SI WA JANET 1970-12-21 06:00:00 TS -13.9667 100.867 987 bom main 933 933 O_____O__OO_O_ jtwc_sh SH051971 -14.2000 101.000 -1 -13.5000 100.600 987 -13.5000 100.600 TC 50 987 -14.2000 101.000 2 -14.2000 101.000 TC 35 16 168
1970353S08097 1971 157 SI WA JANET 1970-12-21 09:00:00 TS -14.8131 101.025 986 bom main 1006 1006 P_____O__PP_P_ SH051971 -14.8350 101.010 -1 -14.6000 101.000 986 -14.8502 101.038 TC 52 986 -14.8662 101.027 2 -14.8924 101.067 TC 35 18 174
1970353S08097 1971 157 SI WA JANET 1970-12-21 12:00:00 TS -15.7595 101.056 985 bom main 1102 1102 O_____O__OP_O_ jtwc_sh SH051971 -15.5000 100.900 -1 -16.2000 101.300 985 -16.2000 101.300 TC 55 985 -15.5570 100.938 2 -15.6000 101.000 TC 35 17 185
1970353S08097 1971 157 SI WA JANET 1970-12-21 15:00:00 TS -16.5219 100.876 984 bom main 1181 1181 P_____O__PP_P_ SH051971 -16.2074 100.745 -1 -17.1000 101.100 984 -17.0998 101.106 TC 55 984 -16.2443 100.755 2 -16.2725 100.803 TC 35 15 198
1970353S08097 1971 157 SI WA JANET 1970-12-21 18:00:00 TS -17.1667 100.567 983 bom main 1265 1265 O_____O__OO_O_ jtwc_sh SH051971 -16.9000 100.500 -1 -17.7000 100.700 983 -17.7000 100.700 TC 55 983 -16.9000 100.500 2 -16.9000 100.500 TC 35 13 208
1970353S08097 1971 157 SI WA JANET 1970-12-21 21:00:00 TS -17.7108 100.225 982 bom main 1334 1334 P_____O__PP_P_ SH051971 -17.5300 100.173 -1 -18.1000 100.300 982 -18.1250 100.342 TC 57 981 -17.5147 100.199 2 -17.4650 100.165 TC 35 12 213
1970353S08097 1971 157 SI WA JANET 1970-12-22 00:00:00 TS -18.1817 99.8731 980 bom main 1399 1399 O_____O__OP_O_ jtwc_sh SH051971 -18.1000 99.8000 -1 -18.4000 100.000 980 -18.4000 100.000 TC 60 980 -18.0905 99.8388 2 -18.0000 99.8000 TC 35 11 215
1970353S08097 1971 157 SI WA JANET 1970-12-22 03:00:00 TS -18.6364 99.5331 980 bom main 1458 1458 P_____O__PP_P_ SH051971 -18.6300 99.4349 -1 -18.7000 99.7000 980 -18.6649 99.7348 TC 57 981 -18.6210 99.4586 2 -18.5725 99.4351 TC 35 11 215
1970353S08097 1971 157 SI WA JANET 1970-12-22 06:00:00 TS -19.0333 99.2333 982 bom main 1512 1512 O_____O__OO_O_ jtwc_sh SH051971 -19.1000 99.1000 -1 -18.9000 99.5000 982 -18.9000 99.5000 TC 55 982 -19.1000 99.1000 2 -19.1000 99.1000 TC 35 9 214
1970353S08097 1971 157 SI WA JANET 1970-12-22 09:00:00 TS -19.4102 98.9804 984 bom main 1556 1556 P_____O__PP_P_ SH051971 -19.5224 98.8347 -1 -19.2000 99.3000 984 -19.1575 99.2500 TC 52 984 -19.5289 98.8282 2 -19.5299 98.8347 TC 35 9 214
1970353S08097 1971 157 SI WA JANET 1970-12-22 12:00:00 TS -19.7349 98.7306 986 bom main 1577 1574 O_____O__OP_O_ jtwc_sh SH051971 -19.9000 98.6000 -1 -19.4000 99.0000 986 -19.4000 99.0000 TC 50 986 -19.9094 98.5835 2 -19.9000 98.6000 TC 35 8 217
1970353S08097 1971 157 SI WA JANET 1970-12-22 15:00:00 TS -20.0387 98.4781 989 bom main 1590 1587 P_____O__PP_P_ SH051971 -20.2574 98.3573 -1 -19.6000 98.7000 989 -19.6000 98.7499 TC 47 988 -20.2602 98.3471 2 -20.2574 98.3573 TC 35 8 218
1970353S08097 1971 157 SI WA JANET 1970-12-22 18:00:00 TS -20.3333 98.2333 991 bom main 1613 1610 O_____O__OO_O_ jtwc_sh SH051971 -20.6000 98.1000 -1 -19.8000 98.5000 991 -19.8000 98.5000 TC 45 991 -20.6000 98.1000 2 -20.6000 98.1000 TC 35 8 217
1970353S08097 1971 157 SI WA JANET 1970-12-22 21:00:00 TS -20.6585 97.9716 993 bom main 1624 1624 P_____O__PP_P_ SH051971 -20.9500 97.8074 -1 -20.1000 98.3000 993 -20.0573 98.2799 TC 42 993 -20.9439 97.8274 2 -20.9500 97.8074 TC 32 8 221
1970353S08097 1971 157 SI WA JANET 1970-12-23 00:00:00 TS -20.8990 97.7048 995 bom main 1651 1651 O_____O__OP_O_ jtwc_sh SH051971 -21.3000 97.5000 -1 -20.3000 98.0000 995 -20.3000 98.0000 TC 40 995 -21.2933 97.5318 2 -21.3000 97.5000 TC 30 7 234
1970353S08097 1971 157 SI WA JANET 1970-12-23 03:00:00 TS -21.0658 97.3717 997 bom main 1679 1679 P_____O__PP_P_ SH051971 -21.6501 97.1978 -1 -20.5000 97.5000 997 -20.4651 97.5799 TC 35 997 -21.6460 97.2203 2 -21.6501 97.1978 TC 30 6 255
1970353S08097 1971 157 SI WA JANET 1970-12-23 06:00:00 TS -21.0667 97.0333 999 bom main 1719 1719 O_____O__OO_O_ jtwc_sh SH051971 -22.0000 96.9000 -1 -20.6000 97.1000 999 -20.6000 97.1000 TC 30 999 -22.0000 96.9000 1 -22.0000 96.9000 TC 30 7 294
1970353S08097 1971 157 SI WA JANET 1970-12-23 09:00:00 TS -20.7861 96.6863 1000 bom main 1756 1756 ______O__P____ SH051971 -1 -20.8000 96.7000 1000 -20.7722 96.6726 TC 30 999 1 TC 8 282
1970353S08097 1971 157 SI WA JANET 1970-12-23 12:00:00 TS -20.9000 96.2000 1000 bom main 1805 1805 ______O__O____ -1 -20.9000 96.2000 1000 -20.9000 96.2000 TC 30 1000 1 10 263
1970353S08097 1971 157 SI WA JANET 1970-12-23 15:00:00 TS -20.9150 95.6074 1001 bom main 1865 1865 ______O__P____ -1 -20.9000 95.6000 1001 -20.9301 95.6149 TC 30 1000 1 11 270
1970353S08097 1971 157 SI WA JANET 1970-12-23 18:00:00 TS -20.9000 95.0000 1001 bom main 1923 1923 ______O__O____ -1 -20.9000 95.0000 1001 -20.9000 95.0000 TC 30 1001 11 272
1970353S08097 1971 157 SI WA JANET 1970-12-23 21:00:00 TS -20.8783 94.4475 1001 bom main 1960 1958 ______O__P____ -1 -20.9000 94.4000 1001 -20.8566 94.4950 TC 27 1001 10 276
1970353S08097 1971 157 SI WA JANET 1970-12-24 00:00:00 TS -20.8000 93.9000 1002 bom main 1984 1984 ______O__O____ -1 -20.8000 93.9000 1002 -20.8000 93.9000 TC 25 1002 13 274
1970353S08097 1971 157 SI WA JANET 1970-12-24 03:00:00 TS -20.7826 93.0301 1002 bom main 2045 2045 ______O__P____ -1 -20.8000 93.0000 1002 -20.7651 93.0602 TC 25 1002 17 273
1970353S08097 1971 157 SI WA JANET 1970-12-24 06:00:00 TS -20.7000 92.1000 1002 bom main 2100 2100 ______O__O____ -1 -20.7000 92.1000 1002 -20.7000 92.1000 TC 25 1002 18 277
1970353S08097 1971 157 SI WA JANET 1970-12-24 09:00:00 TS -20.5766 91.1566 1002 bom main 2159 2159 ______O__P____ -1 -20.6000 91.2000 1002 -20.5649 91.1348 TC 25 1002 18 280
1970353S08097 1971 157 SI WA JANET 1970-12-24 12:00:00 TS -20.4000 90.2000 1003 bom main 2221 2221 ______O__O____ -1 -20.4000 90.2000 1003 -20.4000 90.2000 TC 25 1003 17 282
1970353S08097 1971 157 SI MM JANET 1970-12-24 15:00:00 TS -20.2343 89.3775 main 2270 2270 _________P____ -1 -20.2343 89.3775 TC 25 1003 15 281
1970353S08097 1971 157 SI MM JANET 1970-12-24 18:00:00 TS -20.1000 88.6000 main 2329 2329 _________O____ -1 -20.1000 88.6000 TC 25 1003 15 278
1970353S08097 1971 157 SI MM JANET 1970-12-24 21:00:00 TS -20.0309 87.8076 main 2378 2378 _________P____ -1 -20.0309 87.8076 TC 22 1003 15 274
1970353S08097 1971 157 SI MM JANET 1970-12-25 00:00:00 TS -20.0000 87.0000 main 2423 _________O____ -1 -20.0000 87.0000 TC 20 1004 15 272

About IBTrACS Database

This database is a web-friendly format of International Best Track Archive for Climate Stewardship (IBTrACS), a global best track data archive curated by NOAA dating back to 1842.

Updated: 2021-10-27